sensor_id;sensor_type;location;lat;lon;timestamp;pressure;altitude;pressure_sealevel;temperature;humidity
52441;BME280;39611;46.062;8.950;2023-04-25T00:01:50;95656.69;;;13.64;30.71
52441;BME280;39611;46.062;8.950;2023-04-25T00:04:17;95639.97;;;13.63;31.42
52441;BME280;39611;46.062;8.950;2023-04-25T00:06:44;95652.94;;;13.56;32.21
52441;BME280;39611;46.062;8.950;2023-04-25T00:09:10;95649.97;;;13.49;32.97
52441;BME280;39611;46.062;8.950;2023-04-25T00:11:37;95648.56;;;13.51;32.21
52441;BME280;39611;46.062;8.950;2023-04-25T00:14:04;95655.44;;;13.52;31.35
52441;BME280;39611;46.062;8.950;2023-04-25T00:16:30;95643.09;;;13.48;32.44
52441;BME280;39611;46.062;8.950;2023-04-25T00:19:00;95658.88;;;13.44;32.03
52441;BME280;39611;46.062;8.950;2023-04-25T00:21:28;95656.84;;;13.41;32.67
52441;BME280;39611;46.062;8.950;2023-04-25T00:23:57;95646.84;;;13.47;31.80
52441;BME280;39611;46.062;8.950;2023-04-25T00:26:23;95650.75;;;13.49;31.81
52441;BME280;39611;46.062;8.950;2023-04-25T00:28:51;95655.75;;;13.51;31.55
52441;BME280;39611;46.062;8.950;2023-04-25T00:31:17;95650.44;;;13.51;32.25
52441;BME280;39611;46.062;8.950;2023-04-25T00:33:44;95643.88;;;13.48;32.33
52441;BME280;39611;46.062;8.950;2023-04-25T00:36:10;95654.97;;;13.50;31.28
52441;BME280;39611;46.062;8.950;2023-04-25T00:38:37;95645.91;;;13.43;33.08
52441;BME280;39611;46.062;8.950;2023-04-25T00:41:06;95642.31;;;13.39;33.56
52441;BME280;39611;46.062;8.950;2023-04-25T00:43:33;95645.28;;;13.46;32.76
52441;BME280;39611;46.062;8.950;2023-04-25T00:46:00;95641.06;;;13.45;33.03
52441;BME280;39611;46.062;8.950;2023-04-25T00:48:27;95639.81;;;13.42;33.04
52441;BME280;39611;46.062;8.950;2023-04-25T00:50:55;95634.78;;;13.32;32.78
52441;BME280;39611;46.062;8.950;2023-04-25T00:53:24;95638.22;;;13.32;32.96
52441;BME280;39611;46.062;8.950;2023-04-25T00:55:52;95640.41;;;13.30;33.25
52441;BME280;39611;46.062;8.950;2023-04-25T00:58:19;95634.16;;;13.35;33.22
52441;BME280;39611;46.062;8.950;2023-04-25T01:00:48;95631.84;;;13.33;33.08
52441;BME280;39611;46.062;8.950;2023-04-25T01:03:15;95636.69;;;13.31;33.42
52441;BME280;39611;46.062;8.950;2023-04-25T01:05:48;95632.13;;;13.41;30.68
52441;BME280;39611;46.062;8.950;2023-04-25T01:08:15;95633.25;;;13.40;31.69
52441;BME280;39611;46.062;8.950;2023-04-25T01:10:41;95643.88;;;13.40;32.66
52441;BME280;39611;46.062;8.950;2023-04-25T01:13:08;95632.78;;;13.38;33.31
52441;BME280;39611;46.062;8.950;2023-04-25T01:15:35;95627.44;;;13.38;33.11
52441;BME280;39611;46.062;8.950;2023-04-25T01:18:03;95629.34;;;13.37;33.54
52441;BME280;39611;46.062;8.950;2023-04-25T01:20:32;95634.94;;;13.36;33.32
52441;BME280;39611;46.062;8.950;2023-04-25T01:22:59;95635.75;;;13.36;33.99
52441;BME280;39611;46.062;8.950;2023-04-25T01:25:26;95634.50;;;13.33;34.51
52441;BME280;39611;46.062;8.950;2023-04-25T01:27:53;95639.97;;;13.28;35.25
52441;BME280;39611;46.062;8.950;2023-04-25T01:30:19;95635.22;;;13.25;36.25
52441;BME280;39611;46.062;8.950;2023-04-25T01:32:47;95639.13;;;13.19;36.06
52441;BME280;39611;46.062;8.950;2023-04-25T01:35:14;95644.91;;;13.21;36.54
52441;BME280;39611;46.062;8.950;2023-04-25T01:37:42;95642.88;;;13.18;36.63
52441;BME280;39611;46.062;8.950;2023-04-25T01:40:10;95643.31;;;13.20;35.42
52441;BME280;39611;46.062;8.950;2023-04-25T01:42:39;95633.66;;;13.16;36.79
52441;BME280;39611;46.062;8.950;2023-04-25T01:45:07;95638.63;;;13.17;35.22
52441;BME280;39611;46.062;8.950;2023-04-25T01:47:33;95637.56;;;13.18;35.78
52441;BME280;39611;46.062;8.950;2023-04-25T01:50:02;95638.63;;;13.17;36.02
52441;BME280;39611;46.062;8.950;2023-04-25T01:52:29;95640.81;;;13.15;35.81
52441;BME280;39611;46.062;8.950;2023-04-25T01:54:56;95635.19;;;13.08;38.22
52441;BME280;39611;46.062;8.950;2023-04-25T01:57:23;95629.13;;;13.07;36.16
52441;BME280;39611;46.062;8.950;2023-04-25T01:59:50;95626.75;;;13.06;36.06
52441;BME280;39611;46.062;8.950;2023-04-25T02:02:17;95626.91;;;13.09;36.54
52441;BME280;39611;46.062;8.950;2023-04-25T02:04:43;95618.94;;;13.01;36.98
52441;BME280;39611;46.062;8.950;2023-04-25T02:07:10;95620.97;;;13.04;34.20
52441;BME280;39611;46.062;8.950;2023-04-25T02:09:36;95624.41;;;13.04;37.24
52441;BME280;39611;46.062;8.950;2023-04-25T02:12:03;95620.94;;;12.95;36.94
52441;BME280;39611;46.062;8.950;2023-04-25T02:14:29;95622.50;;;12.87;39.73
52441;BME280;39611;46.062;8.950;2023-04-25T02:16:56;95620.31;;;12.89;40.20
52441;BME280;39611;46.062;8.950;2023-04-25T02:19:23;95618.38;;;12.73;40.72
52441;BME280;39611;46.062;8.950;2023-04-25T02:21:50;95626.66;;;12.71;41.08
52441;BME280;39611;46.062;8.950;2023-04-25T02:24:16;95625.22;;;12.65;42.17
52441;BME280;39611;46.062;8.950;2023-04-25T02:26:42;95630.84;;;12.63;41.38
52441;BME280;39611;46.062;8.950;2023-04-25T02:29:10;95619.25;;;12.51;41.92
52441;BME280;39611;46.062;8.950;2023-04-25T02:31:36;95623.72;;;12.41;41.56
52441;BME280;39611;46.062;8.950;2023-04-25T02:34:02;95619.00;;;12.38;42.46
52441;BME280;39611;46.062;8.950;2023-04-25T02:36:29;95628.53;;;12.39;43.69
52441;BME280;39611;46.062;8.950;2023-04-25T02:38:58;95635.06;;;12.33;44.37
52441;BME280;39611;46.062;8.950;2023-04-25T02:41:24;95639.88;;;12.31;43.89
52441;BME280;39611;46.062;8.950;2023-04-25T02:43:51;95639.75;;;12.36;44.66
52441;BME280;39611;46.062;8.950;2023-04-25T02:46:18;95627.22;;;12.28;45.50
52441;BME280;39611;46.062;8.950;2023-04-25T02:49:03;95621.56;;;12.21;47.53
52441;BME280;39611;46.062;8.950;2023-04-25T02:51:29;95622.66;;;12.20;46.82
52441;BME280;39611;46.062;8.950;2023-04-25T02:53:56;95615.13;;;12.13;47.12
52441;BME280;39611;46.062;8.950;2023-04-25T02:56:22;95622.47;;;12.16;48.07
52441;BME280;39611;46.062;8.950;2023-04-25T02:58:49;95615.91;;;12.14;47.50
52441;BME280;39611;46.062;8.950;2023-04-25T03:01:15;95609.81;;;12.13;48.48
52441;BME280;39611;46.062;8.950;2023-04-25T03:03:42;95609.22;;;12.16;46.16
52441;BME280;39611;46.062;8.950;2023-04-25T03:06:08;95604.84;;;12.12;44.22
52441;BME280;39611;46.062;8.950;2023-04-25T03:08:35;95603.72;;;12.04;45.18
52441;BME280;39611;46.062;8.950;2023-04-25T03:11:01;95606.16;;;12.00;46.34
52441;BME280;39611;46.062;8.950;2023-04-25T03:13:28;95608.78;;;11.92;47.77
52441;BME280;39611;46.062;8.950;2023-04-25T03:15:56;95613.28;;;11.91;48.05
52441;BME280;39611;46.062;8.950;2023-04-25T03:18:22;95617.09;;;11.85;47.90
52441;BME280;39611;46.062;8.950;2023-04-25T03:20:48;95610.53;;;11.82;49.82
52441;BME280;39611;46.062;8.950;2023-04-25T03:23:15;95604.09;;;11.75;49.42
52441;BME280;39611;46.062;8.950;2023-04-25T03:25:41;95612.13;;;11.84;50.02
52441;BME280;39611;46.062;8.950;2023-04-25T03:28:08;95610.84;;;11.81;50.88
52441;BME280;39611;46.062;8.950;2023-04-25T03:30:34;95607.34;;;11.72;48.04
52441;BME280;39611;46.062;8.950;2023-04-25T03:33:01;95597.31;;;11.60;48.88
52441;BME280;39611;46.062;8.950;2023-04-25T03:35:27;95605.78;;;11.71;48.78
52441;BME280;39611;46.062;8.950;2023-04-25T03:37:53;95604.66;;;11.63;50.51
52441;BME280;39611;46.062;8.950;2023-04-25T03:40:20;95600.13;;;11.64;49.27
52441;BME280;39611;46.062;8.950;2023-04-25T03:42:46;95608.25;;;11.67;48.94
52441;BME280;39611;46.062;8.950;2023-04-25T03:45:12;95617.72;;;11.59;51.79
52441;BME280;39611;46.062;8.950;2023-04-25T03:47:39;95619.31;;;11.47;53.29
52441;BME280;39611;46.062;8.950;2023-04-25T03:50:06;95622.31;;;11.31;52.65
52441;BME280;39611;46.062;8.950;2023-04-25T03:52:32;95624.53;;;11.38;51.76
52441;BME280;39611;46.062;8.950;2023-04-25T03:54:59;95614.34;;;11.31;53.29
52441;BME280;39611;46.062;8.950;2023-04-25T03:57:25;95608.75;;;11.33;52.04
52441;BME280;39611;46.062;8.950;2023-04-25T03:59:52;95608.63;;;11.38;52.17
52441;BME280;39611;46.062;8.950;2023-04-25T04:02:18;95612.28;;;11.28;52.93
52441;BME280;39611;46.062;8.950;2023-04-25T04:04:45;95611.63;;;11.23;53.35
52441;BME280;39611;46.062;8.950;2023-04-25T04:07:12;95604.16;;;11.25;51.39
52441;BME280;39611;46.062;8.950;2023-04-25T04:09:38;95604.38;;;11.14;54.23
52441;BME280;39611;46.062;8.950;2023-04-25T04:12:05;95606.63;;;11.07;53.67
52441;BME280;39611;46.062;8.950;2023-04-25T04:14:31;95613.41;;;11.00;54.32
52441;BME280;39611;46.062;8.950;2023-04-25T04:16:57;95604.59;;;11.04;53.20
52441;BME280;39611;46.062;8.950;2023-04-25T04:19:25;95599.72;;;10.98;52.67
52441;BME280;39611;46.062;8.950;2023-04-25T04:21:52;95602.16;;;10.94;51.56
52441;BME280;39611;46.062;8.950;2023-04-25T04:24:18;95605.00;;;10.84;54.63
52441;BME280;39611;46.062;8.950;2023-04-25T04:26:44;95607.16;;;10.68;54.58
52441;BME280;39611;46.062;8.950;2023-04-25T04:29:11;95612.47;;;10.68;54.00
52441;BME280;39611;46.062;8.950;2023-04-25T04:31:50;95613.72;;;10.70;53.99
52441;BME280;39611;46.062;8.950;2023-04-25T04:34:17;95616.69;;;10.69;54.21
52441;BME280;39611;46.062;8.950;2023-04-25T04:36:45;95621.66;;;10.70;55.10
52441;BME280;39611;46.062;8.950;2023-04-25T04:39:13;95638.50;;;10.61;56.55
52441;BME280;39611;46.062;8.950;2023-04-25T04:41:39;95632.16;;;10.62;55.30
52441;BME280;39611;46.062;8.950;2023-04-25T04:44:06;95633.44;;;10.64;56.16
52441;BME280;39611;46.062;8.950;2023-04-25T04:46:35;95640.38;;;10.60;56.98
52441;BME280;39611;46.062;8.950;2023-04-25T04:49:11;95637.81;;;10.55;56.91
52441;BME280;39611;46.062;8.950;2023-04-25T04:51:38;95618.34;;;10.65;56.45
52441;BME280;39611;46.062;8.950;2023-04-25T04:54:04;95627.38;;;10.64;56.36
52441;BME280;39611;46.062;8.950;2023-04-25T04:56:31;95622.16;;;10.59;55.68
52441;BME280;39611;46.062;8.950;2023-04-25T04:58:58;95634.22;;;10.51;56.28
52441;BME280;39611;46.062;8.950;2023-04-25T05:01:25;95636.34;;;10.49;58.29
52441;BME280;39611;46.062;8.950;2023-04-25T05:03:52;95633.38;;;10.37;58.69
52441;BME280;39611;46.062;8.950;2023-04-25T05:06:20;95634.97;;;10.38;57.12
52441;BME280;39611;46.062;8.950;2023-04-25T05:08:46;95629.78;;;10.46;58.17
52441;BME280;39611;46.062;8.950;2023-04-25T05:11:13;95635.34;;;10.45;59.71
52441;BME280;39611;46.062;8.950;2023-04-25T05:13:39;95638.22;;;10.48;58.69
52441;BME280;39611;46.062;8.950;2023-04-25T05:16:06;95635.25;;;10.50;58.34
52441;BME280;39611;46.062;8.950;2023-04-25T05:18:32;95644.38;;;10.44;58.71
52441;BME280;39611;46.062;8.950;2023-04-25T05:20:59;95643.59;;;10.43;57.32
52441;BME280;39611;46.062;8.950;2023-04-25T05:23:25;95639.19;;;10.39;57.36
52441;BME280;39611;46.062;8.950;2023-04-25T05:25:54;95633.03;;;10.43;57.53
52441;BME280;39611;46.062;8.950;2023-04-25T05:28:20;95633.31;;;10.42;56.36
52441;BME280;39611;46.062;8.950;2023-04-25T05:30:47;95628.41;;;10.49;58.64
52441;BME280;39611;46.062;8.950;2023-04-25T05:33:14;95629.69;;;10.38;60.17
52441;BME280;39611;46.062;8.950;2023-04-25T05:35:41;95629.59;;;10.43;59.51
52441;BME280;39611;46.062;8.950;2023-04-25T05:38:07;95635.25;;;10.36;60.20
52441;BME280;39611;46.062;8.950;2023-04-25T05:40:34;95637.22;;;10.31;60.54
52441;BME280;39611;46.062;8.950;2023-04-25T05:43:00;95629.97;;;10.36;60.14
52441;BME280;39611;46.062;8.950;2023-04-25T05:45:27;95628.00;;;10.42;59.98
52441;BME280;39611;46.062;8.950;2023-04-25T05:47:53;95631.25;;;10.39;61.19
52441;BME280;39611;46.062;8.950;2023-04-25T05:50:20;95624.59;;;10.41;60.00
52441;BME280;39611;46.062;8.950;2023-04-25T05:52:46;95630.28;;;10.48;60.35
52441;BME280;39611;46.062;8.950;2023-04-25T05:55:12;95638.50;;;10.47;61.43
52441;BME280;39611;46.062;8.950;2023-04-25T05:57:39;95640.38;;;10.60;61.21
52441;BME280;39611;46.062;8.950;2023-04-25T06:00:14;95641.34;;;10.78;60.16
52441;BME280;39611;46.062;8.950;2023-04-25T06:02:42;95642.78;;;11.40;54.12
52441;BME280;39611;46.062;8.950;2023-04-25T06:05:08;95649.44;;;12.41;52.23
52441;BME280;39611;46.062;8.950;2023-04-25T06:07:36;95652.03;;;13.52;48.96
52441;BME280;39611;46.062;8.950;2023-04-25T06:10:02;95645.56;;;14.23;47.26
52441;BME280;39611;46.062;8.950;2023-04-25T06:12:32;95637.25;;;14.89;44.76
52441;BME280;39611;46.062;8.950;2023-04-25T06:15:00;95639.19;;;15.60;42.91
52441;BME280;39611;46.062;8.950;2023-04-25T06:17:26;95638.66;;;16.08;42.23
52441;BME280;39611;46.062;8.950;2023-04-25T06:19:52;95639.22;;;16.59;40.85
52441;BME280;39611;46.062;8.950;2023-04-25T06:22:19;95633.94;;;17.21;39.25
52441;BME280;39611;46.062;8.950;2023-04-25T06:24:45;95637.59;;;17.04;39.00
52441;BME280;39611;46.062;8.950;2023-04-25T06:27:12;95630.50;;;17.08;38.80
52441;BME280;39611;46.062;8.950;2023-04-25T06:29:41;95632.41;;;17.08;38.85
52441;BME280;39611;46.062;8.950;2023-04-25T06:32:08;95634.06;;;17.12;38.90
52441;BME280;39611;46.062;8.950;2023-04-25T06:34:34;95630.03;;;17.31;38.57
52441;BME280;39611;46.062;8.950;2023-04-25T06:37:00;95633.91;;;17.45;37.83
52441;BME280;39611;46.062;8.950;2023-04-25T06:39:27;95632.25;;;17.29;37.89
52441;BME280;39611;46.062;8.950;2023-04-25T06:41:53;95630.28;;;17.13;38.62
52441;BME280;39611;46.062;8.950;2023-04-25T06:44:20;95635.72;;;16.92;37.54
52441;BME280;39611;46.062;8.950;2023-04-25T06:46:47;95634.63;;;16.81;38.21
52441;BME280;39611;46.062;8.950;2023-04-25T06:49:13;95627.09;;;16.62;38.77
52441;BME280;39611;46.062;8.950;2023-04-25T06:51:40;95626.66;;;16.48;38.94
52441;BME280;39611;46.062;8.950;2023-04-25T06:54:07;95636.16;;;16.36;38.75
52441;BME280;39611;46.062;8.950;2023-04-25T06:56:33;95632.81;;;16.27;39.19
52441;BME280;39611;46.062;8.950;2023-04-25T06:58:59;95634.09;;;16.09;38.42
52441;BME280;39611;46.062;8.950;2023-04-25T07:01:27;95627.22;;;15.87;39.92
52441;BME280;39611;46.062;8.950;2023-04-25T07:03:53;95626.84;;;15.76;39.28
52441;BME280;39611;46.062;8.950;2023-04-25T07:06:20;95626.38;;;15.74;39.51
52441;BME280;39611;46.062;8.950;2023-04-25T07:08:46;95629.25;;;15.69;38.54
52441;BME280;39611;46.062;8.950;2023-04-25T07:11:12;95623.00;;;15.65;38.22
52441;BME280;39611;46.062;8.950;2023-04-25T07:13:39;95630.06;;;15.61;39.76
52441;BME280;39611;46.062;8.950;2023-04-25T07:16:05;95633.84;;;15.60;39.36
52441;BME280;39611;46.062;8.950;2023-04-25T07:18:32;95630.00;;;15.48;38.67
52441;BME280;39611;46.062;8.950;2023-04-25T07:20:58;95627.59;;;15.35;39.34
52441;BME280;39611;46.062;8.950;2023-04-25T07:23:24;95631.41;;;15.25;40.30
52441;BME280;39611;46.062;8.950;2023-04-25T07:25:51;95631.41;;;15.25;41.29
52441;BME280;39611;46.062;8.950;2023-04-25T07:28:17;95632.72;;;15.19;41.81
52441;BME280;39611;46.062;8.950;2023-04-25T07:30:45;95632.97;;;15.26;41.10
52441;BME280;39611;46.062;8.950;2023-04-25T07:33:11;95636.16;;;15.40;40.86
52441;BME280;39611;46.062;8.950;2023-04-25T07:35:37;95627.13;;;15.54;39.88
52441;BME280;39611;46.062;8.950;2023-04-25T07:38:04;95625.19;;;15.63;39.08
52441;BME280;39611;46.062;8.950;2023-04-25T07:40:32;95619.03;;;15.71;39.27
52441;BME280;39611;46.062;8.950;2023-04-25T07:43:00;95610.38;;;15.74;41.28
52441;BME280;39611;46.062;8.950;2023-04-25T07:45:26;95620.78;;;15.67;41.02
52441;BME280;39611;46.062;8.950;2023-04-25T07:47:53;95617.66;;;15.65;41.92
52441;BME280;39611;46.062;8.950;2023-04-25T07:50:19;95613.88;;;15.45;41.67
52441;BME280;39611;46.062;8.950;2023-04-25T07:52:46;95614.00;;;15.48;40.56
52441;BME280;39611;46.062;8.950;2023-04-25T07:55:12;95619.88;;;15.63;41.26
52441;BME280;39611;46.062;8.950;2023-04-25T07:57:39;95616.97;;;15.77;42.41
52441;BME280;39611;46.062;8.950;2023-04-25T08:00:05;95627.16;;;15.75;42.60
52441;BME280;39611;46.062;8.950;2023-04-25T08:02:35;95624.38;;;15.71;43.18
52441;BME280;39611;46.062;8.950;2023-04-25T08:05:03;95612.63;;;15.72;44.07
52441;BME280;39611;46.062;8.950;2023-04-25T08:07:29;95616.06;;;15.72;44.96
52441;BME280;39611;46.062;8.950;2023-04-25T08:09:56;95613.00;;;15.62;44.57
52441;BME280;39611;46.062;8.950;2023-04-25T08:12:22;95619.41;;;15.61;45.33
52441;BME280;39611;46.062;8.950;2023-04-25T08:14:49;95618.13;;;15.67;44.05
52441;BME280;39611;46.062;8.950;2023-04-25T08:17:15;95615.00;;;15.65;43.35
52441;BME280;39611;46.062;8.950;2023-04-25T08:19:42;95609.31;;;15.45;43.96
52441;BME280;39611;46.062;8.950;2023-04-25T08:22:08;95627.72;;;15.38;44.21
52441;BME280;39611;46.062;8.950;2023-04-25T08:24:35;95615.78;;;15.44;45.79
52441;BME280;39611;46.062;8.950;2023-04-25T08:27:04;95612.72;;;15.55;44.93
52441;BME280;39611;46.062;8.950;2023-04-25T08:29:32;95610.19;;;15.37;45.01
52441;BME280;39611;46.062;8.950;2023-04-25T08:31:59;95610.63;;;15.39;44.49
52441;BME280;39611;46.062;8.950;2023-04-25T08:34:25;95610.91;;;15.46;44.63
52441;BME280;39611;46.062;8.950;2023-04-25T08:36:52;95618.91;;;15.46;43.78
52441;BME280;39611;46.062;8.950;2023-04-25T08:39:19;95617.47;;;15.49;44.53
52441;BME280;39611;46.062;8.950;2023-04-25T08:41:47;95622.63;;;15.54;44.21
52441;BME280;39611;46.062;8.950;2023-04-25T08:44:14;95628.06;;;15.58;43.50
52441;BME280;39611;46.062;8.950;2023-04-25T08:46:40;95634.63;;;15.39;44.31
52441;BME280;39611;46.062;8.950;2023-04-25T08:49:08;95627.28;;;15.36;44.69
52441;BME280;39611;46.062;8.950;2023-04-25T08:51:45;95623.19;;;15.39;45.40
52441;BME280;39611;46.062;8.950;2023-04-25T08:54:15;95615.50;;;15.37;44.19
52441;BME280;39611;46.062;8.950;2023-04-25T08:57:03;95613.75;;;15.41;44.63
52441;BME280;39611;46.062;8.950;2023-04-25T08:59:31;95613.41;;;15.43;43.26
52441;BME280;39611;46.062;8.950;2023-04-25T09:01:58;95620.13;;;15.49;43.56
52441;BME280;39611;46.062;8.950;2023-04-25T09:04:27;95621.00;;;15.62;43.27
52441;BME280;39611;46.062;8.950;2023-04-25T09:06:53;95618.44;;;15.65;43.90
52441;BME280;39611;46.062;8.950;2023-04-25T09:09:20;95620.63;;;15.72;44.14
52441;BME280;39611;46.062;8.950;2023-04-25T09:11:47;95628.47;;;15.89;44.28
52441;BME280;39611;46.062;8.950;2023-04-25T09:14:22;95626.75;;;16.06;44.01
52441;BME280;39611;46.062;8.950;2023-04-25T09:19:23;95624.66;;;16.11;41.11
52441;BME280;39611;46.062;8.950;2023-04-25T09:22:05;95624.81;;;16.27;43.58
52441;BME280;39611;46.062;8.950;2023-04-25T09:24:33;95631.50;;;16.33;44.01
52441;BME280;39611;46.062;8.950;2023-04-25T09:27:03;95637.75;;;16.37;43.82
52441;BME280;39611;46.062;8.950;2023-04-25T09:29:31;95641.69;;;16.19;41.31
52441;BME280;39611;46.062;8.950;2023-04-25T09:32:21;95631.22;;;16.14;41.80
52441;BME280;39611;46.062;8.950;2023-04-25T09:34:55;95633.25;;;16.17;40.73
52441;BME280;39611;46.062;8.950;2023-04-25T09:37:29;95634.00;;;16.17;40.93
52441;BME280;39611;46.062;8.950;2023-04-25T09:39:58;95636.88;;;16.12;41.53
52441;BME280;39611;46.062;8.950;2023-04-25T09:42:32;95643.34;;;16.11;43.01
52441;BME280;39611;46.062;8.950;2023-04-25T09:45:01;95636.53;;;16.02;38.08
52441;BME280;39611;46.062;8.950;2023-04-25T09:47:28;95637.19;;;15.99;36.89
52441;BME280;39611;46.062;8.950;2023-04-25T09:49:55;95638.97;;;16.07;35.46
52441;BME280;39611;46.062;8.950;2023-04-25T09:52:25;95638.41;;;16.01;34.65
52441;BME280;39611;46.062;8.950;2023-04-25T09:54:52;95640.63;;;15.99;34.34
52441;BME280;39611;46.062;8.950;2023-04-25T09:57:23;95638.53;;;16.05;34.30
52441;BME280;39611;46.062;8.950;2023-04-25T09:59:51;95633.97;;;16.05;34.42
52441;BME280;39611;46.062;8.950;2023-04-25T10:02:23;95636.06;;;16.00;34.02
52441;BME280;39611;46.062;8.950;2023-04-25T10:04:52;95631.59;;;15.91;31.88
52441;BME280;39611;46.062;8.950;2023-04-25T10:07:26;95627.28;;;15.99;34.27
52441;BME280;39611;46.062;8.950;2023-04-25T10:10:00;95632.97;;;16.10;32.94
52441;BME280;39611;46.062;8.950;2023-04-25T10:12:28;95632.72;;;16.03;32.87
52441;BME280;39611;46.062;8.950;2023-04-25T10:14:54;95624.97;;;16.10;33.68
52441;BME280;39611;46.062;8.950;2023-04-25T10:17:21;95627.13;;;16.16;33.67
52441;BME280;39611;46.062;8.950;2023-04-25T10:19:48;95625.34;;;16.21;32.67
52441;BME280;39611;46.062;8.950;2023-04-25T10:22:34;95622.59;;;16.29;33.34
52441;BME280;39611;46.062;8.950;2023-04-25T10:25:02;95626.41;;;16.41;32.91
52441;BME280;39611;46.062;8.950;2023-04-25T10:27:31;95627.78;;;16.59;35.39
52441;BME280;39611;46.062;8.950;2023-04-25T10:30:15;95633.88;;;16.59;31.97
52441;BME280;39611;46.062;8.950;2023-04-25T10:32:43;95642.66;;;16.60;33.28
52441;BME280;39611;46.062;8.950;2023-04-25T10:35:12;95633.09;;;16.59;32.67
52441;BME280;39611;46.062;8.950;2023-04-25T10:37:56;95643.78;;;16.59;33.08
52441;BME280;39611;46.062;8.950;2023-04-25T10:40:23;95643.78;;;16.59;33.56
52441;BME280;39611;46.062;8.950;2023-04-25T10:42:54;95638.88;;;16.49;31.57
52441;BME280;39611;46.062;8.950;2023-04-25T10:45:22;95654.22;;;16.40;32.14
52441;BME280;39611;46.062;8.950;2023-04-25T10:47:48;95655.97;;;16.35;31.17
52441;BME280;39611;46.062;8.950;2023-04-25T10:50:15;95667.34;;;16.11;31.84
52441;BME280;39611;46.062;8.950;2023-04-25T10:52:45;95664.34;;;16.13;32.89
52441;BME280;39611;46.062;8.950;2023-04-25T10:55:11;95667.75;;;16.01;32.58
52441;BME280;39611;46.062;8.950;2023-04-25T10:57:40;95679.41;;;15.97;34.56
52441;BME280;39611;46.062;8.950;2023-04-25T11:00:14;95689.13;;;15.92;34.53
52441;BME280;39611;46.062;8.950;2023-04-25T11:02:51;95705.47;;;15.61;35.25
52441;BME280;39611;46.062;8.950;2023-04-25T11:05:29;95722.19;;;15.49;35.46
52441;BME280;39611;46.062;8.950;2023-04-25T11:08:00;95711.97;;;15.22;36.36
52441;BME280;39611;46.062;8.950;2023-04-25T11:10:34;95747.56;;;14.79;37.67
52441;BME280;39611;46.062;8.950;2023-04-25T11:13:04;95729.69;;;14.71;38.31
52441;BME280;39611;46.062;8.950;2023-04-25T11:15:31;95730.50;;;14.71;39.04
52441;BME280;39611;46.062;8.950;2023-04-25T11:17:57;95753.22;;;14.69;40.05
52441;BME280;39611;46.062;8.950;2023-04-25T11:20:25;95753.50;;;14.67;40.27
52441;BME280;39611;46.062;8.950;2023-04-25T11:22:52;95737.53;;;14.67;40.35
52441;BME280;39611;46.062;8.950;2023-04-25T11:25:19;95735.34;;;14.60;43.30
52441;BME280;39611;46.062;8.950;2023-04-25T11:27:53;95703.44;;;14.43;41.67
52441;BME280;39611;46.062;8.950;2023-04-25T11:30:20;95713.94;;;14.22;43.05
52441;BME280;39611;46.062;8.950;2023-04-25T11:32:47;95703.13;;;14.18;42.83
52441;BME280;39611;46.062;8.950;2023-04-25T11:35:14;95701.25;;;14.28;41.96
52441;BME280;39611;46.062;8.950;2023-04-25T11:37:43;95696.72;;;14.28;40.48
52441;BME280;39611;46.062;8.950;2023-04-25T11:40:10;95699.66;;;14.44;38.85
52441;BME280;39611;46.062;8.950;2023-04-25T11:42:45;95695.44;;;14.60;39.63
52441;BME280;39611;46.062;8.950;2023-04-25T11:45:13;95691.50;;;14.67;38.48
52441;BME280;39611;46.062;8.950;2023-04-25T11:47:39;95686.50;;;14.74;38.33
52441;BME280;39611;46.062;8.950;2023-04-25T11:50:07;95686.16;;;14.84;40.30
52441;BME280;39611;46.062;8.950;2023-04-25T11:52:42;95683.13;;;14.94;38.33
52441;BME280;39611;46.062;8.950;2023-04-25T11:55:15;95687.00;;;15.05;39.33
52441;BME280;39611;46.062;8.950;2023-04-25T11:57:43;95684.44;;;15.18;39.78
52441;BME280;39611;46.062;8.950;2023-04-25T12:00:20;95692.09;;;15.19;36.88
52441;BME280;39611;46.062;8.950;2023-04-25T12:02:54;95683.91;;;15.24;37.56
52441;BME280;39611;46.062;8.950;2023-04-25T12:05:25;95671.34;;;15.34;35.92
52441;BME280;39611;46.062;8.950;2023-04-25T12:08:12;95679.00;;;15.35;35.66
52441;BME280;39611;46.062;8.950;2023-04-25T12:10:40;95672.13;;;15.34;36.02
52441;BME280;39611;46.062;8.950;2023-04-25T12:13:26;95667.69;;;15.38;35.13
52441;BME280;39611;46.062;8.950;2023-04-25T12:15:54;95660.53;;;15.30;34.27
52441;BME280;39611;46.062;8.950;2023-04-25T12:18:25;95664.91;;;15.35;35.24
52441;BME280;39611;46.062;8.950;2023-04-25T12:20:54;95661.84;;;15.45;35.81
52441;BME280;39611;46.062;8.950;2023-04-25T12:23:27;95656.53;;;15.45;35.18
52441;BME280;39611;46.062;8.950;2023-04-25T12:25:54;95648.22;;;15.46;35.64
52441;BME280;39611;46.062;8.950;2023-04-25T12:28:25;95658.16;;;15.58;37.18
52441;BME280;39611;46.062;8.950;2023-04-25T12:33:22;95653.56;;;15.67;33.44
52441;BME280;39611;46.062;8.950;2023-04-25T12:35:48;95651.50;;;15.73;34.30
52441;BME280;39611;46.062;8.950;2023-04-25T12:38:28;95642.66;;;15.81;34.39
52441;BME280;39611;46.062;8.950;2023-04-25T12:40:57;95634.72;;;15.93;35.36
52441;BME280;39611;46.062;8.950;2023-04-25T12:43:24;95647.13;;;15.89;33.90
52441;BME280;39611;46.062;8.950;2023-04-25T12:45:52;95634.44;;;15.86;34.34
52441;BME280;39611;46.062;8.950;2023-04-25T12:48:19;95645.19;;;15.99;35.29
52441;BME280;39611;46.062;8.950;2023-04-25T12:50:47;95649.13;;;15.92;31.70
52441;BME280;39611;46.062;8.950;2023-04-25T12:53:18;95644.91;;;15.91;31.92
52441;BME280;39611;46.062;8.950;2023-04-25T12:55:46;95633.38;;;16.00;33.65
52441;BME280;39611;46.062;8.950;2023-04-25T12:58:13;95639.63;;;16.04;31.10
52441;BME280;39611;46.062;8.950;2023-04-25T13:00:40;95628.59;;;15.93;32.19
52441;BME280;39611;46.062;8.950;2023-04-25T13:03:08;95628.97;;;16.04;33.06
52441;BME280;39611;46.062;8.950;2023-04-25T13:05:35;95630.44;;;16.13;32.30
52441;BME280;39611;46.062;8.950;2023-04-25T13:08:02;95616.31;;;16.13;30.37
52441;BME280;39611;46.062;8.950;2023-04-25T13:10:28;95626.00;;;16.17;30.69